createdAt,value
2018-02-27T00:01:28.662Z,9.43
2018-02-27T00:03:57.075Z,8.43
2018-02-27T00:06:25.620Z,9.10
2018-02-27T00:08:54.690Z,9.65
2018-02-27T00:11:23.957Z,8.30
2018-02-27T00:13:53.762Z,10.43
2018-02-27T00:16:21.305Z,7.72
2018-02-27T00:18:49.687Z,9.15
2018-02-27T00:21:18.179Z,8.45
2018-02-27T00:23:47.123Z,8.98
2018-02-27T00:26:14.736Z,8.10
2018-02-27T00:28:46.937Z,9.48
2018-02-27T00:31:14.487Z,8.18
2018-02-27T00:33:46.838Z,9.55
2018-02-27T00:36:15.245Z,9.73
2018-02-27T00:38:45.682Z,8.75
2018-02-27T00:41:14.106Z,8.60
2018-02-27T00:43:42.031Z,8.75
2018-02-27T00:46:10.670Z,8.98
2018-02-27T00:48:40.983Z,8.60
2018-02-27T00:51:09.061Z,8.45
2018-02-27T00:53:38.427Z,8.00
2018-02-27T00:56:06.964Z,7.72
2018-02-27T00:58:37.425Z,8.13
2018-02-27T01:01:05.423Z,8.25
2018-02-27T01:03:35.756Z,7.62
2018-02-27T01:06:03.968Z,8.40
2018-02-27T01:08:32.753Z,7.85
2018-02-27T01:11:00.260Z,8.23
2018-02-27T01:13:28.604Z,7.45
2018-02-27T01:15:56.901Z,7.43
2018-02-27T01:18:24.801Z,7.28
2018-02-27T01:20:53.755Z,9.60
2018-02-27T01:23:23.273Z,7.20
2018-02-27T01:25:51.810Z,8.73
2018-02-27T01:28:20.317Z,7.10
2018-02-27T01:30:50.912Z,7.03
2018-02-27T01:33:19.407Z,7.35
2018-02-27T01:38:22.216Z,7.80
2018-02-27T01:40:50.951Z,7.25
2018-02-27T01:43:19.702Z,7.72
2018-02-27T01:45:48.791Z,7.07
2018-02-27T01:48:17.440Z,7.05
2018-02-27T01:50:45.594Z,7.12
2018-02-27T01:53:13.114Z,6.85
2018-02-27T01:55:40.606Z,7.10
2018-02-27T01:58:08.939Z,6.95
2018-02-27T02:00:38.703Z,7.03
2018-02-27T02:03:07.843Z,6.18
2018-02-27T02:05:36.612Z,6.85
2018-02-27T02:08:07.117Z,6.80
2018-02-27T02:10:37.146Z,7.45
2018-02-27T02:13:10.086Z,7.80
2018-02-27T02:15:42.077Z,7.32
2018-02-27T02:18:12.415Z,6.28
2018-02-27T02:20:45.472Z,6.87
2018-02-27T02:23:14.319Z,7.00
2018-02-27T02:25:45.464Z,7.10
2018-02-27T02:28:16.437Z,7.12
2018-02-27T02:30:45.244Z,7.22
2018-02-27T02:33:16.415Z,6.57
2018-02-27T02:35:44.679Z,7.05
2018-02-27T02:38:12.924Z,6.80
2018-02-27T02:40:41.422Z,6.50
2018-02-27T02:43:09.926Z,6.37
2018-02-27T02:45:38.393Z,6.95
2018-02-27T02:48:06.787Z,6.62
2018-02-27T02:50:35.192Z,6.82
2018-02-27T02:53:02.770Z,7.07
2018-02-27T02:55:32.598Z,7.82
2018-02-27T02:58:01.656Z,6.18
2018-02-27T03:00:30.236Z,6.43
2018-02-27T03:02:59.669Z,6.40
2018-02-27T03:05:27.191Z,7.30
2018-02-27T03:07:56.652Z,6.40
2018-02-27T03:10:25.084Z,6.25
2018-02-27T03:12:53.411Z,7.10
2018-02-27T03:15:24.256Z,5.93
2018-02-27T03:18:00.928Z,6.55
2018-02-27T03:20:29.893Z,5.20
2018-02-27T03:23:05.189Z,6.30
2018-02-27T03:25:34.086Z,6.30
2018-02-27T03:28:02.555Z,6.22
2018-02-27T03:30:31.824Z,7.28
2018-02-27T03:33:00.072Z,6.47
2018-02-27T03:35:28.129Z,6.75
2018-02-27T03:37:57.425Z,6.70
2018-02-27T03:40:26.408Z,7.22
2018-02-27T03:42:56.138Z,7.75
2018-02-27T03:45:24.938Z,6.80
2018-02-27T03:47:53.218Z,7.37
2018-02-27T03:50:21.854Z,7.10
2018-02-27T03:52:50.127Z,6.82
2018-02-27T03:55:18.440Z,6.97
2018-02-27T03:57:45.949Z,6.82
2018-02-27T04:00:15.971Z,5.55
2018-02-27T04:02:44.975Z,6.65
2018-02-27T04:05:13.162Z,6.95
2018-02-27T04:07:40.655Z,6.85
2018-02-27T04:10:08.308Z,6.22
2018-02-27T04:12:38.872Z,6.47
2018-02-27T04:15:08.347Z,7.78
2018-02-27T04:17:38.294Z,6.87
2018-02-27T04:20:07.466Z,6.30
2018-02-27T04:22:38.237Z,6.65
2018-02-27T04:25:07.454Z,7.18
2018-02-27T04:27:36.587Z,7.32
2018-02-27T04:30:08.168Z,6.47
2018-02-27T04:32:36.619Z,6.30
2018-02-27T04:35:05.050Z,7.43
2018-02-27T04:37:33.208Z,6.90
2018-02-27T04:40:01.206Z,7.55
2018-02-27T04:42:29.629Z,6.30
2018-02-27T04:47:31.018Z,6.90
2018-02-27T04:49:59.194Z,7.18
2018-02-27T04:52:27.758Z,6.90
2018-02-27T04:54:56.277Z,7.15
2018-02-27T04:57:23.866Z,8.02
2018-02-27T04:59:51.573Z,7.45
2018-02-27T05:02:19.862Z,7.60
2018-02-27T05:04:49.854Z,8.43
2018-02-27T05:07:17.851Z,7.30
2018-02-27T05:09:45.766Z,6.78
2018-02-27T05:12:13.345Z,7.57
2018-02-27T05:14:41.058Z,6.45
2018-02-27T05:17:12.663Z,6.60
2018-02-27T05:19:40.193Z,7.62
2018-02-27T05:22:08.944Z,7.37
2018-02-27T05:24:37.711Z,7.65
2018-02-27T05:27:05.357Z,7.20
2018-02-27T05:29:34.790Z,7.35
2018-02-27T05:32:02.313Z,7.28
2018-02-27T05:34:31.544Z,6.70
2018-02-27T05:36:59.157Z,7.18
2018-02-27T05:39:30.930Z,7.75
2018-02-27T05:42:00.368Z,7.45
2018-02-27T05:44:31.508Z,7.40
2018-02-27T05:46:59.887Z,7.10
2018-02-27T05:49:31.410Z,7.40
2018-02-27T05:51:59.642Z,7.80
2018-02-27T05:54:27.743Z,8.60
2018-02-27T05:56:55.543Z,8.60
2018-02-27T05:59:23.152Z,8.02
2018-02-27T06:01:55.623Z,7.70
2018-02-27T06:04:25.942Z,7.85
2018-02-27T06:06:54.361Z,7.20
2018-02-27T06:09:22.556Z,7.80
2018-02-27T06:11:51.060Z,6.70
2018-02-27T06:14:24.964Z,6.60
2018-02-27T06:16:53.490Z,6.68
2018-02-27T06:19:24.096Z,7.10
2018-02-27T06:21:54.746Z,7.37
2018-02-27T06:24:24.414Z,7.20
2018-02-27T06:26:52.597Z,7.60
2018-02-27T06:29:22.816Z,6.93
2018-02-27T06:31:56.542Z,7.50
2018-02-27T06:34:28.261Z,6.72
2018-02-27T06:36:56.557Z,7.35
2018-02-27T06:39:24.955Z,6.65
2018-02-27T06:41:52.620Z,6.95
2018-02-27T06:44:21.166Z,7.12
2018-02-27T06:46:50.443Z,7.15
2018-02-27T06:49:20.278Z,7.00
2018-02-27T06:51:48.032Z,6.68
2018-02-27T06:54:16.219Z,6.97
2018-02-27T06:56:44.334Z,7.72
2018-02-27T06:59:12.772Z,8.13
2018-02-27T07:01:41.894Z,7.12
2018-02-27T07:04:09.652Z,8.05
2018-02-27T07:06:37.156Z,6.20
2018-02-27T07:09:05.414Z,7.22
2018-02-27T07:11:33.035Z,6.70
2018-02-27T07:14:00.696Z,6.28
2018-02-27T07:16:28.350Z,6.90
2018-02-27T07:18:56.395Z,6.03
2018-02-27T07:21:24.738Z,6.40
2018-02-27T07:23:52.928Z,7.20
2018-02-27T07:26:20.444Z,5.68
2018-02-27T07:28:47.953Z,6.60
2018-02-27T07:31:15.434Z,6.12
2018-02-27T07:33:42.970Z,6.80
2018-02-27T07:36:11.266Z,5.97
2018-02-27T07:38:39.903Z,5.53
2018-02-27T07:41:07.374Z,6.15
2018-02-27T07:43:34.868Z,6.37
2018-02-27T07:46:02.361Z,5.57
2018-02-27T07:48:29.859Z,5.95
2018-02-27T07:50:57.386Z,5.87
2018-02-27T07:53:24.886Z,7.07
2018-02-27T07:55:53.126Z,5.90
2018-02-27T07:58:20.639Z,6.10
2018-02-27T08:00:48.878Z,6.05
2018-02-27T08:03:16.362Z,5.40
2018-02-27T08:05:44.650Z,6.53
2018-02-27T08:08:12.894Z,6.55
2018-02-27T08:10:40.415Z,6.55
2018-02-27T08:13:07.906Z,6.12
2018-02-27T08:15:35.406Z,5.20
2018-02-27T08:18:02.921Z,6.10
2018-02-27T08:20:30.437Z,6.10
2018-02-27T08:22:57.913Z,6.20
2018-02-27T08:25:25.406Z,6.82
2018-02-27T08:27:52.898Z,5.95
2018-02-27T08:30:20.406Z,5.85
2018-02-27T08:32:47.976Z,5.55
2018-02-27T08:35:16.286Z,7.00
2018-02-27T08:37:44.550Z,6.12
2018-02-27T08:40:12.019Z,5.53
2018-02-27T08:42:40.289Z,5.30
2018-02-27T08:45:08.538Z,5.40
2018-02-27T08:47:36.043Z,6.32
2018-02-27T08:50:03.583Z,6.68
2018-02-27T08:52:31.838Z,6.25
2018-02-27T08:54:59.318Z,5.85
2018-02-27T08:57:27.563Z,4.93
2018-02-27T08:59:55.068Z,5.70
2018-02-27T09:02:23.364Z,5.90
2018-02-27T09:04:50.859Z,6.05
2018-02-27T09:07:18.350Z,5.95
2018-02-27T09:09:46.585Z,5.37
2018-02-27T09:12:14.073Z,5.53
2018-02-27T09:14:41.617Z,5.95
2018-02-27T09:17:09.972Z,5.25
2018-02-27T09:19:37.516Z,4.57
2018-02-27T09:22:05.006Z,5.40
2018-02-27T09:24:32.510Z,5.85
2018-02-27T09:27:00.746Z,7.55
2018-02-27T09:29:28.222Z,5.75
2018-02-27T09:31:56.063Z,5.35
2018-02-27T09:34:23.546Z,7.20
2018-02-27T09:36:51.022Z,6.65
2018-02-27T09:39:19.270Z,6.40
2018-02-27T09:41:46.823Z,7.05
2018-02-27T09:44:14.327Z,6.00
2018-02-27T09:46:41.815Z,5.75
2018-02-27T09:49:09.286Z,7.28
2018-02-27T09:51:36.765Z,6.45
2018-02-27T09:54:04.250Z,4.65
2018-02-27T09:56:32.562Z,6.40
2018-02-27T09:59:00.067Z,6.62
2018-02-27T10:01:27.559Z,6.55
2018-02-27T10:03:55.037Z,5.80
2018-02-27T10:06:22.514Z,6.60
2018-02-27T10:08:50.015Z,5.95
2018-02-27T10:13:52.077Z,5.20
2018-02-27T10:16:19.552Z,5.43
2018-02-27T10:18:47.798Z,6.20
2018-02-27T10:21:15.307Z,5.12
2018-02-27T10:23:42.781Z,5.25
2018-02-27T10:26:10.254Z,5.07
2018-02-27T10:28:37.734Z,4.57
2018-02-27T10:31:05.221Z,5.47
2018-02-27T10:33:32.789Z,5.35
2018-02-27T10:36:01.070Z,5.03
2018-02-27T10:38:29.319Z,5.50
2018-02-27T10:40:57.566Z,4.87
2018-02-27T10:43:25.161Z,5.20
2018-02-27T10:45:53.417Z,4.95
2018-02-27T10:48:20.907Z,5.28
2018-02-27T10:50:49.167Z,4.05
2018-02-27T10:53:16.747Z,4.95
2018-02-27T10:55:44.232Z,4.30
2018-02-27T10:58:11.726Z,4.70
2018-02-27T11:00:44.783Z,5.22
2018-02-27T11:03:12.278Z,4.62
2018-02-27T11:05:39.763Z,4.53
2018-02-27T11:08:08.010Z,5.30
2018-02-27T11:10:35.537Z,4.28
2018-02-27T11:13:03.036Z,4.35
2018-02-27T11:15:30.514Z,3.62
2018-02-27T11:17:58.782Z,3.83
2018-02-27T11:20:27.049Z,4.32
2018-02-27T11:22:54.626Z,3.80
2018-02-27T11:25:22.167Z,4.20
2018-02-27T11:27:49.653Z,4.15
2018-02-27T11:30:17.177Z,4.72
2018-02-27T11:32:44.666Z,4.22
2018-02-27T11:35:12.926Z,4.77
2018-02-27T11:37:40.442Z,4.13
2018-02-27T11:40:07.995Z,3.90
2018-02-27T11:42:35.515Z,3.57
2018-02-27T11:45:03.107Z,3.23
2018-02-27T11:47:30.594Z,4.35
2018-02-27T11:49:58.074Z,4.37
2018-02-27T11:52:25.711Z,4.15
2018-02-27T11:54:53.308Z,3.17
2018-02-27T11:57:20.826Z,4.03
2018-02-27T11:59:48.311Z,4.15
2018-02-27T12:02:15.802Z,5.07
2018-02-27T12:04:44.046Z,3.75
2018-02-27T12:07:11.557Z,4.45
2018-02-27T12:09:39.045Z,3.15
2018-02-27T12:12:06.546Z,3.85
2018-02-27T12:14:34.046Z,4.30
2018-02-27T12:17:01.553Z,3.22
2018-02-27T12:19:29.057Z,4.00
2018-02-27T12:21:56.671Z,3.57
2018-02-27T12:24:24.167Z,3.03
2018-02-27T12:26:51.655Z,3.22
2018-02-27T12:29:19.178Z,3.80
2018-02-27T12:31:46.682Z,4.32
2018-02-27T12:34:14.195Z,3.53
2018-02-27T12:36:41.700Z,4.78
2018-02-27T12:39:09.226Z,4.35
2018-02-27T12:41:36.708Z,4.10
2018-02-27T12:44:04.181Z,3.70
2018-02-27T12:46:31.722Z,3.95
2018-02-27T12:48:59.218Z,4.28
2018-02-27T12:51:26.691Z,3.65
2018-02-27T12:53:54.962Z,3.45
2018-02-27T12:56:23.206Z,3.45
2018-02-27T12:58:50.686Z,4.20
2018-02-27T13:01:18.162Z,4.37
2018-02-27T13:03:46.421Z,3.62
2018-02-27T13:06:13.894Z,4.37
2018-02-27T13:08:42.160Z,3.60
2018-02-27T13:11:09.808Z,3.20
2018-02-27T13:13:38.095Z,3.70
2018-02-27T13:16:05.566Z,3.87
2018-02-27T13:18:33.826Z,3.50
2018-02-27T13:21:02.072Z,2.90
2018-02-27T13:23:29.555Z,3.45
2018-02-27T13:25:57.061Z,3.40
2018-02-27T13:28:24.575Z,4.40
2018-02-27T13:30:52.061Z,3.83
2018-02-27T13:33:19.558Z,3.70
2018-02-27T13:35:47.042Z,3.95
2018-02-27T13:38:14.531Z,4.22
2018-02-27T13:40:42.030Z,3.80
2018-02-27T13:43:09.512Z,3.30
2018-02-27T13:45:37.002Z,4.30
2018-02-27T13:48:05.308Z,3.67
2018-02-27T13:50:32.800Z,3.67
2018-02-27T13:53:00.287Z,2.92
2018-02-27T13:55:28.566Z,3.20
2018-02-27T13:57:56.863Z,4.40
2018-02-27T14:00:25.142Z,3.40
2018-02-27T14:02:52.716Z,3.30
2018-02-27T14:05:20.210Z,4.22
2018-02-27T14:07:47.699Z,3.10
2018-02-27T14:10:15.984Z,3.83
2018-02-27T14:12:44.258Z,3.60
2018-02-27T14:15:12.506Z,3.13
2018-02-27T14:17:40.033Z,3.60
2018-02-27T14:20:08.303Z,3.45
2018-02-27T14:22:35.818Z,4.40
2018-02-27T14:25:04.098Z,2.87
2018-02-27T14:27:32.370Z,3.47
2018-02-27T14:29:59.842Z,3.55
2018-02-27T14:32:28.216Z,4.40
2018-02-27T14:34:55.675Z,4.05
2018-02-27T14:37:23.931Z,4.05
2018-02-27T14:39:51.430Z,4.30
2018-02-27T14:42:18.928Z,4.20
2018-02-27T14:44:46.414Z,3.65
2018-02-27T14:47:13.917Z,3.47
2018-02-27T14:49:41.392Z,3.30
2018-02-27T14:52:08.866Z,3.45
2018-02-27T14:54:36.358Z,3.42
2018-02-27T14:57:04.610Z,4.05
2018-02-27T14:59:33.689Z,3.83
2018-02-27T15:02:01.166Z,4.50
2018-02-27T15:04:28.680Z,3.70
2018-02-27T15:06:56.178Z,3.72
2018-02-27T15:09:23.707Z,4.43
2018-02-27T15:11:51.178Z,3.87
2018-02-27T15:14:18.674Z,4.82
2018-02-27T15:16:47.020Z,3.90
2018-02-27T15:19:14.512Z,4.53
2018-02-27T15:21:42.782Z,4.35
2018-02-27T15:24:10.284Z,4.97
2018-02-27T15:26:37.819Z,3.87
2018-02-27T15:29:06.260Z,4.18
2018-02-27T15:31:33.810Z,4.60
2018-02-27T15:34:01.302Z,4.47
2018-02-27T15:36:28.780Z,4.10
2018-02-27T15:38:56.399Z,4.50
2018-02-27T15:41:23.998Z,4.18
2018-02-27T15:43:52.272Z,4.03
2018-02-27T15:46:20.518Z,3.75
2018-02-27T15:48:48.018Z,3.95
2018-02-27T15:51:15.510Z,3.35
2018-02-27T15:53:42.989Z,4.20
2018-02-27T15:56:10.467Z,3.00
2018-02-27T15:58:38.019Z,3.62
2018-02-27T16:01:05.504Z,3.20
2018-02-27T16:03:32.983Z,3.40
2018-02-27T16:06:00.513Z,3.62
2018-02-27T16:08:28.797Z,3.80
2018-02-27T16:10:56.280Z,3.85
2018-02-27T16:13:23.848Z,3.47
2018-02-27T16:15:51.342Z,4.15
2018-02-27T16:18:18.826Z,3.55
2018-02-27T16:20:47.131Z,3.55
2018-02-27T16:23:14.622Z,3.90
2018-02-27T16:25:42.094Z,3.30
2018-02-27T16:28:09.594Z,4.00
2018-02-27T16:30:37.094Z,4.00
2018-02-27T16:33:04.589Z,3.45
2018-02-27T16:35:32.873Z,3.95
2018-02-27T16:38:01.143Z,4.25
2018-02-27T16:40:28.648Z,4.43
2018-02-27T16:42:56.181Z,3.58
2018-02-27T16:45:23.622Z,3.78
2018-02-27T16:47:51.882Z,3.47
2018-02-27T16:50:19.387Z,3.28
2018-02-27T16:52:46.898Z,3.58
2018-02-27T16:55:14.394Z,3.55
2018-02-27T16:57:41.892Z,3.20
2018-02-27T17:00:09.370Z,4.25
2018-02-27T17:02:36.854Z,4.10
2018-02-27T17:05:05.127Z,4.12
2018-02-27T17:07:32.601Z,4.10
2018-02-27T17:10:00.088Z,4.68
2018-02-27T17:12:27.617Z,3.58
2018-02-27T17:14:55.117Z,3.90
2018-02-27T17:17:22.635Z,3.10
2018-02-27T17:19:50.214Z,3.83
2018-02-27T17:22:17.690Z,4.97
2018-02-27T17:24:45.983Z,5.18
2018-02-27T17:27:13.474Z,4.47
2018-02-27T17:29:41.725Z,4.78
2018-02-27T17:32:09.266Z,4.70
2018-02-27T17:34:36.870Z,4.82
2018-02-27T17:37:05.126Z,5.43
2018-02-27T17:39:32.640Z,4.85
2018-02-27T17:42:00.115Z,4.75
2018-02-27T17:44:27.607Z,5.72
2018-02-27T17:46:55.202Z,5.32
2018-02-27T17:49:22.699Z,5.65
2018-02-27T17:51:50.190Z,5.10
2018-02-27T17:54:17.679Z,4.93
2018-02-27T17:56:45.258Z,4.75
2018-02-27T17:59:12.818Z,4.60
2018-02-27T18:01:40.297Z,5.18
2018-02-27T18:04:07.907Z,5.35
2018-02-27T18:06:35.556Z,5.30
2018-02-27T18:09:03.124Z,4.95
2018-02-27T18:11:30.676Z,6.07
2018-02-27T18:13:58.926Z,5.37
2018-02-27T18:16:26.522Z,6.00
2018-02-27T18:18:54.034Z,6.65
2018-02-27T18:21:21.544Z,5.20
2018-02-27T18:23:49.070Z,5.70
2018-02-27T18:26:16.550Z,5.18
2018-02-27T18:28:45.695Z,5.40
2018-02-27T18:31:13.186Z,5.43
2018-02-27T18:33:40.738Z,6.53
2018-02-27T18:36:08.222Z,6.93
2018-02-27T18:38:36.499Z,7.43
2018-02-27T18:41:04.745Z,8.50
2018-02-27T18:43:32.232Z,6.45
2018-02-27T18:46:00.522Z,6.40
2018-02-27T18:48:28.768Z,5.32
2018-02-27T18:50:56.248Z,6.05
2018-02-27T18:53:24.521Z,7.15
2018-02-27T18:55:52.078Z,7.12
2018-02-27T18:58:19.579Z,6.75
2018-02-27T19:00:47.210Z,6.62
2018-02-27T19:03:15.454Z,6.55
2018-02-27T19:05:42.950Z,6.53
2018-02-27T19:08:11.226Z,7.75
2018-02-27T19:10:39.470Z,8.00
2018-02-27T19:13:06.970Z,7.10
2018-02-27T19:15:34.482Z,7.47
2018-02-27T19:18:01.958Z,7.43
2018-02-27T19:20:29.430Z,7.70
2018-02-27T19:22:57.714Z,7.18
2018-02-27T19:25:25.960Z,7.65
2018-02-27T19:27:53.522Z,6.72
2018-02-27T19:30:21.019Z,6.30
2018-02-27T19:32:48.498Z,7.30
2018-02-27T19:35:15.998Z,6.93
2018-02-27T19:37:43.506Z,8.02
2018-02-27T19:40:10.991Z,7.50
2018-02-27T19:42:38.491Z,6.82
2018-02-27T19:45:06.790Z,6.70
2018-02-27T19:47:34.274Z,6.75
2018-02-27T19:50:01.768Z,6.32
2018-02-27T19:52:30.022Z,7.20
2018-02-27T19:55:00.874Z,7.30
2018-02-27T19:57:31.087Z,6.90
2018-02-27T20:00:02.610Z,7.97
2018-02-27T20:02:31.542Z,6.95
2018-02-27T20:05:01.105Z,8.60
2018-02-27T20:07:28.624Z,7.47
2018-02-27T20:10:00.090Z,7.25
2018-02-27T20:12:31.454Z,7.40
2018-02-27T20:15:04.289Z,7.78
2018-02-27T20:17:33.769Z,7.93
2018-02-27T20:20:01.660Z,7.22
2018-02-27T20:22:35.772Z,7.07
2018-02-27T20:25:03.352Z,8.32
2018-02-27T20:27:31.686Z,7.68
2018-02-27T20:29:59.243Z,8.73
2018-02-27T20:32:26.967Z,7.55
2018-02-27T20:34:54.569Z,7.70
2018-02-27T20:37:22.616Z,8.43
2018-02-27T20:39:50.713Z,8.75
2018-02-27T20:42:18.320Z,7.87
2018-02-27T20:44:46.395Z,8.52
2018-02-27T20:47:14.731Z,7.80
2018-02-27T20:49:43.108Z,8.73
2018-02-27T20:52:11.469Z,9.52
2018-02-27T20:54:39.108Z,9.73
2018-02-27T20:57:06.878Z,8.68
2018-02-27T20:59:34.446Z,9.02
2018-02-27T21:02:02.010Z,8.77
2018-02-27T21:04:29.542Z,9.48
2018-02-27T21:06:57.046Z,8.77
2018-02-27T21:09:24.546Z,9.35
2018-02-27T21:11:52.894Z,9.75
2018-02-27T21:14:20.390Z,9.82
2018-02-27T21:16:48.681Z,9.82
2018-02-27T21:19:16.200Z,9.05
2018-02-27T21:21:43.753Z,9.07
2018-02-27T21:24:11.784Z,9.88
2018-02-27T21:26:39.386Z,10.43
2018-02-27T21:29:06.966Z,9.88
2018-02-27T21:31:34.502Z,7.60
2018-02-27T21:34:02.098Z,9.40
2018-02-27T21:36:29.626Z,9.70
2018-02-27T21:38:57.105Z,8.85
2018-02-27T21:41:24.689Z,9.60
2018-02-27T21:43:52.190Z,9.73
2018-02-27T21:46:19.693Z,9.60
2018-02-27T21:48:48.024Z,10.15
2018-02-27T21:51:15.615Z,10.13
2018-02-27T21:53:43.106Z,8.35
2018-02-27T21:56:10.688Z,9.65
2018-02-27T21:58:38.453Z,10.75
2018-02-27T22:01:06.723Z,11.12
2018-02-27T22:03:34.264Z,10.55
2018-02-27T22:06:01.842Z,11.18
2018-02-27T22:08:29.505Z,9.80
2018-02-27T22:10:57.063Z,10.15
2018-02-27T22:13:24.566Z,9.68
2018-02-27T22:15:52.114Z,9.27
2018-02-27T22:18:19.629Z,10.63
2018-02-27T22:20:47.171Z,11.38
2018-02-27T22:23:15.469Z,9.75
2018-02-27T22:25:42.951Z,10.02
2018-02-27T22:28:10.511Z,10.38
2018-02-27T22:30:38.774Z,10.02
2018-02-27T22:33:06.369Z,9.88
2018-02-27T22:35:33.893Z,9.90
2018-02-27T22:38:01.426Z,10.55
2018-02-27T22:40:29.787Z,8.98
2018-02-27T22:42:57.393Z,10.40
2018-02-27T22:45:25.049Z,9.15
2018-02-27T22:47:52.559Z,10.48
2018-02-27T22:50:20.183Z,10.00
2018-02-27T22:52:47.702Z,9.50
2018-02-27T22:55:16.095Z,10.75
2018-02-27T22:57:52.136Z,9.77
2018-02-27T23:00:32.800Z,9.55
2018-02-27T23:03:00.371Z,9.82
2018-02-27T23:05:29.257Z,9.98
2018-02-27T23:07:57.259Z,10.20
2018-02-27T23:10:25.758Z,9.95
2018-02-27T23:12:54.392Z,9.70
2018-02-27T23:15:25.171Z,9.63
2018-02-27T23:17:54.116Z,9.88
2018-02-27T23:20:21.804Z,10.30
2018-02-27T23:22:49.435Z,10.70
2018-02-27T23:25:37.381Z,10.45
2018-02-27T23:28:12.601Z,10.40
2018-02-27T23:30:43.554Z,9.95
2018-02-27T23:33:32.203Z,10.88
2018-02-27T23:38:52.773Z,11.18
2018-02-27T23:41:21.935Z,9.65
2018-02-27T23:43:49.533Z,10.52
2018-02-27T23:46:17.168Z,10.80
2018-02-27T23:48:44.753Z,10.63
2018-02-27T23:51:12.301Z,10.43
2018-02-27T23:53:39.858Z,12.15
2018-02-27T23:56:07.495Z,9.77
2018-02-27T23:58:35.104Z,12.32
